Robert Gray Army Air Field Airport Fort Hood,Killeen US
ICAO: KGRK
IATA: GRK
Category: Medium
Scheduled Services: Yes

Elevation: 1015 ft
TransAlt. 18000 ft.

Airport Communications:
GRAY APP/DEP:120.075
ATIS:111.8
CLNC DEL:121.8
GRAY GND:126.2
RANGE CTL:30.45
FT HOOD FLT FLW:38.75
PMSV GRAY METRO:41.2
PTD:38.7
TWR:120.75

KGRK Zoom In..

Runways:

(A) RW 15 length 10000 ft width 200 ft
ILS 111.10 / hdg 150

(B) RW 33 length 10000 ft width 200 ft
ILS 109.35 / hdg 330

Location; KGRK
Day. 23 / Time. 21.58 Zulu
* Altimeter: 29.98
* Temperature: 30° c. 86°f.
* Wind from: 090° Speed 15 kn.
Dewpoint: 18° c.
Visibility: 10 Statute Miles.
Clouds: Scattered 4900 ft.
Clouds: Broken 6500 ft.
Clouds: Broken 1000 ft.

KGRK 232158Z AUTO 09015KT 10SM SCT049 BKN065 BKN100 30/18 A2998 RMK AO2 CIG 050 RWY33 SLP143 T02960184 PNO


Wind From 090°
Speed 15 kn.

 
 
jpsmedia.com for Web Design SOUNDCLOUD worldairports.se 2018   terms of use